Time;durP1;ratioP1;P1;durP2;ratioP2;P2;SDS_P1;SDS_P2;PMS_P1;PMS_P2;Temp;Humidity;BMP_temperature;BMP_pressure;BME280_temperature;BME280_humidity;BME280_pressure;Samples;Min_cycle;Max_cycle;Signal;HPM_P1;HPM_P2
2024/02/19 00:00:51;;;;;;;0.70;0.40;;;9.10;99.90;;;;;;5022585;28;20029;-69
2024/02/19 00:03:19;;;;;;;0.70;0.47;;;9.10;99.90;;;;;;5019287;28;20021;-69
2024/02/19 00:05:45;;;;;;;0.30;0.30;;;9.10;99.90;;;;;;5018468;28;20367;-69
2024/02/19 00:08:12;;;;;;;2.58;0.32;;;9.10;99.90;;;;;;5023790;28;20034;-68
2024/02/19 00:10:38;;;;;;;1.27;0.60;;;9.10;99.90;;;;;;5018128;28;20034;-69
2024/02/19 00:13:04;;;;;;;0.28;0.28;;;9.10;99.90;;;;;;5018725;28;20037;-69
2024/02/19 00:15:31;;;;;;;5.68;1.65;;;9.10;99.90;;;;;;5016644;28;20033;-70
2024/02/19 00:17:57;;;;;;;0.93;0.75;;;9.10;99.90;;;;;;5019548;28;20112;-68
2024/02/19 00:20:24;;;;;;;1.42;0.60;;;9.10;99.90;;;;;;5019928;28;20056;-68
2024/02/19 00:22:50;;;;;;;5.00;1.15;;;9.10;99.90;;;;;;5024191;28;20029;-69
2024/02/19 00:25:17;;;;;;;1.10;0.55;;;9.10;99.90;;;;;;5020726;28;20340;-68
2024/02/19 00:27:43;;;;;;;0.22;0.22;;;9.20;99.90;;;;;;5022180;28;20355;-68
2024/02/19 00:30:09;;;;;;;1.05;0.60;;;9.10;99.90;;;;;;5018348;28;20099;-69
2024/02/19 00:32:35;;;;;;;0.55;0.55;;;9.20;99.90;;;;;;5023748;28;20101;-68
2024/02/19 00:35:01;;;;;;;1.38;0.70;;;9.10;99.90;;;;;;5016610;28;20117;-68
2024/02/19 00:37:27;;;;;;;0.85;0.60;;;9.10;99.90;;;;;;5019234;28;20064;-68
2024/02/19 00:39:53;;;;;;;1.10;0.60;;;9.10;99.90;;;;;;5020337;28;20565;-67
2024/02/19 00:42:19;;;;;;;1.27;0.47;;;9.10;99.90;;;;;;5021591;28;20056;-69
2024/02/19 00:44:45;;;;;;;0.65;0.52;;;9.20;99.90;;;;;;5016329;28;20048;-69
2024/02/19 00:47:12;;;;;;;0.93;0.73;;;9.30;99.90;;;;;;5022131;28;20033;-68
2024/02/19 00:49:37;;;;;;;0.70;0.52;;;9.30;99.90;;;;;;5019695;28;20075;-68
2024/02/19 00:52:03;;;;;;;0.60;0.50;;;9.50;99.90;;;;;;5024894;28;20108;-68
2024/02/19 00:54:29;;;;;;;0.55;0.50;;;9.60;99.90;;;;;;5019132;28;20034;-68
2024/02/19 00:56:55;;;;;;;1.23;0.68;;;9.70;99.90;;;;;;5020744;28;20026;-68
2024/02/19 00:59:21;;;;;;;0.85;0.68;;;9.70;99.90;;;;;;5017663;28;20033;-68
2024/02/19 01:01:47;;;;;;;0.70;0.65;;;9.80;99.90;;;;;;5019627;28;20037;-68
2024/02/19 01:04:13;;;;;;;0.30;0.30;;;9.80;99.90;;;;;;5017731;28;20030;-68
2024/02/19 01:06:38;;;;;;;0.90;0.60;;;9.80;99.90;;;;;;5024044;28;20072;-68
2024/02/19 01:09:04;;;;;;;0.75;0.75;;;9.80;99.90;;;;;;5018455;28;20104;-67
2024/02/19 01:11:30;;;;;;;0.85;0.57;;;10.00;99.90;;;;;;5017916;28;20032;-68
2024/02/19 01:13:56;;;;;;;1.75;1.10;;;9.90;99.90;;;;;;5018971;28;20060;-68
2024/02/19 01:16:22;;;;;;;1.38;0.70;;;9.90;99.90;;;;;;5018473;28;20500;-67
2024/02/19 01:18:48;;;;;;;1.20;0.73;;;9.80;99.90;;;;;;5021181;28;20114;-68
2024/02/19 01:21:14;;;;;;;1.35;0.82;;;9.80;99.90;;;;;;5019980;28;20089;-69
2024/02/19 01:23:40;;;;;;;3.22;1.08;;;9.80;99.90;;;;;;5018511;28;20018;-68
2024/02/19 01:26:06;;;;;;;1.80;1.08;;;9.90;99.90;;;;;;5019625;28;20028;-68
2024/02/19 01:28:31;;;;;;;0.68;0.60;;;9.80;99.90;;;;;;5021533;28;20097;-68
2024/02/19 01:30:57;;;;;;;1.70;1.10;;;9.80;99.90;;;;;;5019000;28;20033;-68
2024/02/19 01:33:23;;;;;;;1.73;1.20;;;9.80;99.90;;;;;;5003122;28;20034;-68
2024/02/19 01:35:49;;;;;;;2.85;1.50;;;9.80;99.90;;;;;;4996367;28;20082;-68
2024/02/19 01:38:16;;;;;;;4.75;2.72;;;9.80;99.90;;;;;;4995855;28;20140;-68
2024/02/19 01:40:42;;;;;;;4.43;2.08;;;9.80;99.90;;;;;;4995957;28;20065;-68
2024/02/19 01:43:09;;;;;;;1.95;1.25;;;9.80;99.90;;;;;;4996165;28;20053;-68
2024/02/19 01:45:37;;;;;;;6.75;3.38;;;9.80;99.90;;;;;;5016384;28;20057;-68
2024/02/19 01:48:03;;;;;;;5.00;1.80;;;9.80;99.90;;;;;;5003416;28;20029;-68
2024/02/19 01:50:34;;;;;;;7.35;2.40;;;9.80;99.90;;;;;;5018293;28;20112;-69
2024/02/19 01:53:08;;;;;;;2.97;1.30;;;9.80;99.90;;;;;;5019588;28;20516;-68
2024/02/19 01:55:37;;;;;;;3.88;1.60;;;9.80;99.90;;;;;;5015017;28;20033;-69
2024/02/19 01:58:03;;;;;;;2.25;1.27;;;9.80;99.90;;;;;;5013444;28;20062;-68
2024/02/19 02:00:31;;;;;;;1.88;1.20;;;9.80;99.90;;;;;;5016857;28;20523;-69
2024/02/19 02:02:57;;;;;;;5.10;1.35;;;9.80;99.90;;;;;;5019242;28;20042;-69
2024/02/19 02:05:24;;;;;;;1.95;1.08;;;9.80;99.90;;;;;;5006871;28;20397;-69
2024/02/19 02:07:50;;;;;;;1.70;0.90;;;9.70;99.90;;;;;;5014915;28;20017;-69
2024/02/19 02:10:18;;;;;;;2.13;0.85;;;9.70;99.90;;;;;;5016555;28;20037;-69
2024/02/19 02:12:44;;;;;;;2.22;1.30;;;9.70;99.90;;;;;;5018400;28;20437;-70
2024/02/19 02:15:11;;;;;;;1.55;0.93;;;9.70;99.90;;;;;;5022599;28;20140;-68
2024/02/19 02:17:36;;;;;;;1.50;1.20;;;9.70;99.90;;;;;;5023938;28;20041;-68
2024/02/19 02:20:04;;;;;;;5.95;1.85;;;9.70;99.90;;;;;;5020495;28;20038;-69
2024/02/19 02:22:30;;;;;;;2.33;1.65;;;9.70;99.90;;;;;;5020557;28;20087;-68
2024/02/19 02:24:56;;;;;;;3.13;1.20;;;9.70;99.90;;;;;;5022775;28;20067;-68
2024/02/19 02:27:21;;;;;;;20.83;2.45;;;9.80;99.90;;;;;;5021333;28;20021;-69
2024/02/19 02:29:47;;;;;;;3.38;1.58;;;9.80;99.90;;;;;;5018520;28;20033;-68
2024/02/19 02:32:13;;;;;;;3.10;1.05;;;9.90;99.90;;;;;;5026435;28;20076;-68
2024/02/19 02:34:39;;;;;;;3.28;0.98;;;9.90;99.90;;;;;;5020703;28;20709;-69
2024/02/19 02:37:05;;;;;;;0.95;0.80;;;9.90;99.90;;;;;;5022445;28;20489;-68
2024/02/19 02:39:32;;;;;;;1.63;0.80;;;10.00;99.90;;;;;;5016586;28;20053;-68
2024/02/19 02:41:57;;;;;;;1.90;1.15;;;10.10;99.90;;;;;;5008994;28;20030;-68
2024/02/19 02:44:24;;;;;;;1.80;1.02;;;10.20;99.90;;;;;;5019651;28;20108;-69
2024/02/19 02:46:50;;;;;;;3.20;0.98;;;10.40;99.90;;;;;;5021722;28;20075;-69
2024/02/19 02:49:15;;;;;;;5.88;1.33;;;10.50;99.90;;;;;;5038941;28;20025;-69
2024/02/19 02:51:41;;;;;;;2.90;1.33;;;10.50;99.90;;;;;;5023703;28;20045;-69
2024/02/19 02:54:07;;;;;;;1.35;0.73;;;10.60;99.90;;;;;;5021872;28;20147;-69
2024/02/19 02:56:33;;;;;;;2.85;0.75;;;10.60;99.90;;;;;;5022472;28;20025;-69
2024/02/19 02:58:58;;;;;;;3.47;1.02;;;10.60;99.90;;;;;;5019878;28;20498;-69
2024/02/19 03:01:29;;;;;;;1.10;0.70;;;10.70;99.90;;;;;;5020153;28;20482;-69
2024/02/19 03:03:56;;;;;;;1.67;0.85;;;10.70;99.90;;;;;;5032163;28;20037;-69
2024/02/19 03:06:22;;;;;;;1.25;0.73;;;10.70;99.90;;;;;;5005517;28;20031;-69
2024/02/19 03:08:48;;;;;;;2.22;0.80;;;10.80;99.90;;;;;;5020490;28;20049;-69
2024/02/19 03:11:14;;;;;;;1.40;1.00;;;10.80;99.90;;;;;;5024517;28;20029;-69
2024/02/19 03:13:40;;;;;;;1.13;0.80;;;10.70;99.90;;;;;;5021729;28;20045;-69
2024/02/19 03:16:06;;;;;;;1.92;1.05;;;10.70;99.90;;;;;;5021285;28;20044;-69
2024/02/19 03:18:34;;;;;;;2.08;1.25;;;10.80;99.90;;;;;;5023779;28;20022;-69
2024/02/19 03:21:00;;;;;;;0.60;0.40;;;10.80;99.90;;;;;;5038028;28;20040;-69
2024/02/19 03:23:26;;;;;;;4.30;0.60;;;10.80;99.90;;;;;;5020832;28;20041;-69
2024/02/19 03:25:53;;;;;;;0.47;0.32;;;10.90;99.90;;;;;;5019329;28;20091;-69
2024/02/19 03:28:19;;;;;;;1.73;0.75;;;10.90;99.90;;;;;;5022069;28;20426;-68
2024/02/19 03:30:46;;;;;;;0.75;0.38;;;10.90;99.90;;;;;;5021938;28;20061;-68
2024/02/19 03:33:11;;;;;;;7.13;1.02;;;10.90;99.90;;;;;;5019530;28;20022;-69
2024/02/19 03:35:37;;;;;;;1.75;0.88;;;10.90;99.90;;;;;;5018118;28;20080;-69
2024/02/19 03:38:03;;;;;;;5.82;1.15;;;10.90;99.90;;;;;;5019869;28;20129;-70
2024/02/19 03:40:29;;;;;;;4.47;0.85;;;10.80;99.90;;;;;;5015518;28;20057;-68
2024/02/19 03:42:55;;;;;;;1.98;0.95;;;10.80;99.90;;;;;;5022071;28;20501;-68
2024/02/19 03:45:21;;;;;;;1.75;0.73;;;10.80;99.90;;;;;;5020450;28;20390;-68
2024/02/19 03:47:47;;;;;;;1.02;0.60;;;10.80;99.90;;;;;;5021437;28;20052;-68
2024/02/19 03:50:13;;;;;;;1.02;0.57;;;10.70;99.90;;;;;;5018026;28;20034;-69
2024/02/19 03:52:39;;;;;;;1.10;0.65;;;10.70;99.90;;;;;;5017709;28;20493;-68
2024/02/19 03:55:06;;;;;;;0.98;0.60;;;10.70;99.90;;;;;;5017535;28;20459;-68
2024/02/19 03:57:32;;;;;;;0.45;0.40;;;10.70;99.90;;;;;;5019076;28;20025;-68
2024/02/19 03:59:57;;;;;;;1.00;0.70;;;10.70;99.90;;;;;;5015596;28;20367;-68
2024/02/19 04:02:24;;;;;;;3.22;0.90;;;10.70;99.90;;;;;;5019013;28;20022;-68
2024/02/19 04:04:50;;;;;;;3.15;0.80;;;10.60;99.90;;;;;;5019510;28;20083;-68
2024/02/19 04:07:16;;;;;;;1.48;0.98;;;10.60;99.90;;;;;;5024267;28;20021;-70
2024/02/19 04:09:42;;;;;;;3.20;1.13;;;10.60;99.90;;;;;;5021250;28;20109;-69
2024/02/19 04:12:11;;;;;;;3.05;0.95;;;10.50;99.90;;;;;;5021829;28;20112;-69
2024/02/19 04:14:40;;;;;;;1.20;0.73;;;10.50;99.90;;;;;;5020608;28;20456;-70
2024/02/19 04:17:07;;;;;;;4.45;1.20;;;10.50;99.90;;;;;;5021160;28;20430;-70
2024/02/19 04:19:33;;;;;;;0.22;0.22;;;10.40;99.90;;;;;;5022231;28;20549;-69
2024/02/19 04:21:58;;;;;;;7.72;0.75;;;10.40;99.90;;;;;;5020937;28;20116;-70
2024/02/19 04:24:24;;;;;;;0.95;0.60;;;10.50;99.90;;;;;;5017410;28;20082;-70
2024/02/19 04:26:50;;;;;;;2.25;0.68;;;10.50;99.90;;;;;;5021861;28;20350;-70
2024/02/19 04:29:15;;;;;;;1.75;0.60;;;10.60;99.90;;;;;;5019723;28;20036;-69
2024/02/19 04:31:41;;;;;;;1.08;1.00;;;10.60;99.90;;;;;;5018182;28;20029;-69
2024/02/19 04:34:10;;;;;;;1.52;0.45;;;10.60;99.90;;;;;;5018162;28;20248;-70
2024/02/19 04:36:36;;;;;;;7.15;1.33;;;10.60;99.90;;;;;;5018926;28;20025;-69
2024/02/19 04:39:01;;;;;;;0.85;0.60;;;10.60;99.90;;;;;;5020805;28;20033;-70
2024/02/19 04:41:27;;;;;;;4.47;0.47;;;10.60;99.90;;;;;;5020636;28;20033;-70
2024/02/19 04:43:53;;;;;;;0.82;0.75;;;10.60;99.90;;;;;;5021426;28;20053;-69
2024/02/19 04:46:19;;;;;;;2.88;1.50;;;10.60;99.90;;;;;;5020208;28;20021;-70
2024/02/19 04:48:45;;;;;;;6.10;1.00;;;10.60;99.90;;;;;;5019834;28;20414;-70
2024/02/19 04:51:10;;;;;;;0.40;0.40;;;10.50;99.90;;;;;;5019997;28;20052;-70
2024/02/19 04:53:36;;;;;;;3.95;0.68;;;10.50;99.90;;;;;;5017054;28;20068;-70
2024/02/19 04:56:02;;;;;;;3.00;0.35;;;10.50;99.90;;;;;;5019615;28;20079;-70
2024/02/19 04:58:28;;;;;;;2.28;0.65;;;10.50;99.90;;;;;;5020891;28;20037;-70
2024/02/19 05:00:53;;;;;;;1.63;0.30;;;10.50;99.90;;;;;;5022336;28;20044;-70
2024/02/19 05:03:19;;;;;;;1.08;0.55;;;10.50;99.90;;;;;;5019341;28;20105;-70
2024/02/19 05:05:45;;;;;;;1.20;0.50;;;10.40;99.90;;;;;;5018849;28;20542;-70
2024/02/19 05:08:11;;;;;;;0.70;0.50;;;10.40;99.90;;;;;;5021236;28;20501;-70
2024/02/19 05:10:36;;;;;;;0.28;0.28;;;10.50;99.90;;;;;;5019827;28;20499;-70
2024/02/19 05:13:02;;;;;;;0.55;0.40;;;10.50;99.90;;;;;;5016789;28;20573;-70
2024/02/19 05:15:28;;;;;;;1.80;0.70;;;10.50;99.90;;;;;;5018330;28;20064;-69
2024/02/19 05:17:54;;;;;;;1.85;0.68;;;10.50;99.90;;;;;;5020771;28;20053;-69
2024/02/19 05:20:20;;;;;;;0.98;0.55;;;10.50;99.90;;;;;;5018347;28;20033;-70
2024/02/19 05:22:47;;;;;;;0.80;0.40;;;10.50;99.90;;;;;;5015795;28;20030;-70
2024/02/19 05:25:13;;;;;;;3.15;0.63;;;10.50;99.90;;;;;;5016961;28;20064;-69
2024/02/19 05:27:39;;;;;;;2.22;1.02;;;10.40;99.90;;;;;;5018042;28;20045;-70
2024/02/19 05:30:06;;;;;;;0.52;0.38;;;10.40;99.90;;;;;;5000551;28;20037;-70
2024/02/19 05:32:32;;;;;;;1.95;0.35;;;10.50;99.90;;;;;;5019372;28;20394;-70
2024/02/19 05:34:58;;;;;;;2.10;0.93;;;10.50;99.90;;;;;;5016974;28;20121;-70
2024/02/19 05:37:24;;;;;;;0.88;0.52;;;10.40;99.90;;;;;;5018017;28;20025;-69
2024/02/19 05:39:50;;;;;;;1.23;0.68;;;10.40;99.90;;;;;;5018247;28;20034;-69
2024/02/19 05:42:16;;;;;;;3.45;1.10;;;10.40;99.90;;;;;;5018530;28;20034;-68
2024/02/19 05:44:42;;;;;;;3.13;0.80;;;10.40;99.90;;;;;;5017106;28;20084;-68
2024/02/19 05:47:08;;;;;;;0.75;0.47;;;10.40;99.90;;;;;;5019199;28;20040;-69
2024/02/19 05:49:34;;;;;;;0.52;0.50;;;10.40;99.90;;;;;;5025136;28;20026;-69
2024/02/19 05:52:00;;;;;;;0.70;0.45;;;10.40;99.90;;;;;;5026833;28;20025;-68
2024/02/19 05:54:26;;;;;;;3.45;1.10;;;10.40;99.90;;;;;;5023731;28;20041;-69
2024/02/19 05:56:52;;;;;;;1.10;0.30;;;10.40;99.90;;;;;;5024217;28;20386;-68
2024/02/19 05:59:18;;;;;;;3.60;0.68;;;10.20;99.90;;;;;;5040173;28;20026;-68
2024/02/19 06:01:43;;;;;;;2.22;0.98;;;10.30;99.90;;;;;;5024561;28;20033;-69
2024/02/19 06:04:09;;;;;;;1.05;0.50;;;10.30;99.90;;;;;;5025216;28;20167;-69
2024/02/19 06:06:35;;;;;;;1.55;0.60;;;10.30;99.90;;;;;;5012625;28;20033;-69
2024/02/19 06:09:04;;;;;;;1.65;0.80;;;10.30;99.90;;;;;;5029922;28;20104;-68
2024/02/19 06:11:31;;;;;;;0.90;0.40;;;10.30;99.90;;;;;;5024810;28;20630;-69
2024/02/19 06:13:57;;;;;;;0.80;0.52;;;10.30;99.90;;;;;;5025252;28;20409;-68
2024/02/19 06:16:23;;;;;;;1.40;0.68;;;10.30;99.90;;;;;;5023998;28;20481;-68
2024/02/19 06:18:49;;;;;;;0.88;0.43;;;10.30;99.90;;;;;;5017429;28;20038;-69
2024/02/19 06:21:15;;;;;;;3.53;0.63;;;10.30;99.90;;;;;;5017943;28;20470;-67
2024/02/19 06:23:41;;;;;;;0.52;0.30;;;10.30;99.90;;;;;;5014934;28;20422;-71
2024/02/19 06:26:10;;;;;;;6.30;0.70;;;10.30;99.90;;;;;;5015539;28;20482;-70
2024/02/19 06:28:35;;;;;;;0.95;0.50;;;10.20;99.90;;;;;;5016445;28;20453;-68
2024/02/19 06:31:01;;;;;;;1.52;0.70;;;10.10;99.90;;;;;;5017786;28;20026;-68
2024/02/19 06:33:27;;;;;;;2.20;0.80;;;10.20;99.90;;;;;;5015903;28;20084;-67
2024/02/19 06:35:53;;;;;;;4.60;0.40;;;10.20;99.90;;;;;;5017888;28;20077;-68
2024/02/19 06:38:18;;;;;;;2.40;0.43;;;10.20;99.90;;;;;;5017454;28;20067;-68
2024/02/19 06:40:44;;;;;;;1.02;0.40;;;10.20;99.90;;;;;;5017378;28;20070;-68
2024/02/19 06:43:10;;;;;;;4.82;0.57;;;10.20;99.90;;;;;;5011015;28;20048;-72
2024/02/19 06:45:36;;;;;;;2.00;0.50;;;10.20;99.90;;;;;;5016898;28;20463;-68
2024/02/19 06:48:04;;;;;;;1.75;0.77;;;10.20;99.90;;;;;;5016743;28;20079;-68
2024/02/19 06:50:30;;;;;;;1.75;0.93;;;10.10;99.90;;;;;;5017559;28;20438;-68
2024/02/19 06:52:55;;;;;;;1.85;0.40;;;10.20;99.90;;;;;;5016413;28;20057;-68
2024/02/19 06:55:21;;;;;;;0.70;0.47;;;10.10;99.90;;;;;;5017138;28;20030;-68
2024/02/19 06:57:47;;;;;;;3.13;0.47;;;10.20;99.90;;;;;;5016965;28;20099;-68
2024/02/19 07:00:13;;;;;;;13.35;1.40;;;10.20;99.90;;;;;;5015360;28;20176;-67
2024/02/19 07:02:39;;;;;;;0.57;0.45;;;10.10;99.90;;;;;;4992230;28;20109;-68
2024/02/19 07:05:06;;;;;;;7.90;0.95;;;10.10;99.90;;;;;;5014370;28;20036;-68
2024/02/19 07:07:33;;;;;;;9.73;0.45;;;10.10;99.90;;;;;;5010677;28;20394;-68
2024/02/19 07:09:59;;;;;;;2.72;0.28;;;10.10;99.90;;;;;;5012680;28;20030;-68
2024/02/19 07:12:26;;;;;;;2.90;0.40;;;10.10;99.90;;;;;;5011290;28;20033;-68
2024/02/19 07:14:52;;;;;;;0.30;0.30;;;10.10;99.90;;;;;;5010744;28;20107;-54
2024/02/19 07:17:18;;;;;;;1.13;0.30;;;10.10;99.90;;;;;;5012336;28;20501;-51
2024/02/19 07:19:44;;;;;;;2.05;0.43;;;10.10;99.90;;;;;;5011467;28;20109;-57
2024/02/19 07:22:09;;;;;;;2.63;0.50;;;10.10;99.90;;;;;;5008799;28;20062;-55
2024/02/19 07:24:38;;;;;;;1.13;0.22;;;10.10;99.90;;;;;;5012002;28;20136;-51
2024/02/19 07:27:05;;;;;;;0.17;0.15;;;10.10;99.90;;;;;;5017441;28;20023;-54
2024/02/19 07:29:31;;;;;;;1.67;0.35;;;10.10;99.90;;;;;;5013662;28;20030;-53
2024/02/19 07:31:56;;;;;;;1.65;0.60;;;10.20;99.90;;;;;;5013540;28;20030;-52
2024/02/19 07:34:23;;;;;;;0.28;0.17;;;10.20;99.90;;;;;;5011734;28;20034;-69
2024/02/19 07:36:49;;;;;;;2.85;1.10;;;10.10;99.90;;;;;;5007871;28;20040;-67
2024/02/19 07:39:15;;;;;;;0.88;0.38;;;10.10;99.90;;;;;;5011764;28;20035;-68
2024/02/19 07:41:41;;;;;;;1.70;0.60;;;10.10;99.90;;;;;;5012980;28;20034;-68
2024/02/19 07:44:07;;;;;;;7.60;0.73;;;10.10;99.90;;;;;;5010803;28;20038;-68
2024/02/19 07:46:33;;;;;;;0.35;0.15;;;10.10;99.90;;;;;;5013037;28;20072;-68
2024/02/19 07:48:59;;;;;;;1.35;0.30;;;10.20;99.90;;;;;;5012375;28;20061;-68
2024/02/19 07:51:24;;;;;;;1.08;0.50;;;10.10;99.90;;;;;;5013193;28;20041;-68
2024/02/19 07:53:50;;;;;;;1.65;0.32;;;10.10;99.90;;;;;;5012069;28;20062;-69
2024/02/19 07:56:16;;;;;;;2.85;0.30;;;10.10;99.90;;;;;;5012861;28;20058;-68
2024/02/19 07:58:41;;;;;;;4.72;1.15;;;10.20;99.90;;;;;;5011906;28;20620;-69
2024/02/19 08:01:07;;;;;;;0.70;0.50;;;10.20;99.90;;;;;;5012256;28;20041;-68
2024/02/19 08:03:34;;;;;;;0.77;0.22;;;10.20;99.90;;;;;;5011270;28;20570;-68
2024/02/19 08:06:00;;;;;;;0.77;0.32;;;10.30;99.90;;;;;;5012367;28;20034;-68
2024/02/19 08:08:26;;;;;;;2.13;0.43;;;10.30;99.90;;;;;;4993199;28;20762;-68
2024/02/19 08:10:52;;;;;;;2.78;0.57;;;10.20;99.90;;;;;;5023028;28;20030;-67
2024/02/19 08:13:18;;;;;;;3.75;0.73;;;10.20;99.90;;;;;;5011602;28;20080;-68
2024/02/19 08:15:44;;;;;;;0.93;0.32;;;10.20;99.90;;;;;;5020588;28;20061;-68
2024/02/19 08:18:10;;;;;;;0.93;0.45;;;10.30;99.90;;;;;;5015672;28;20406;-68
2024/02/19 08:20:40;;;;;;;0.52;0.25;;;10.30;99.90;;;;;;5019613;28;20110;-68
2024/02/19 08:23:07;;;;;;;1.55;0.35;;;10.30;99.90;;;;;;5017422;28;20033;-68
2024/02/19 08:25:33;;;;;;;0.50;0.20;;;10.30;99.90;;;;;;5021069;28;20061;-68
2024/02/19 08:27:59;;;;;;;3.92;0.50;;;10.30;99.90;;;;;;5013968;28;20045;-69
2024/02/19 08:30:25;;;;;;;0.90;0.30;;;10.30;99.90;;;;;;5016510;28;20030;-69
2024/02/19 08:32:51;;;;;;;4.60;0.98;;;10.20;99.90;;;;;;5014061;28;20506;-69
2024/02/19 08:35:17;;;;;;;1.40;0.50;;;10.20;99.90;;;;;;5011373;28;20093;-67
2024/02/19 08:37:43;;;;;;;0.47;0.32;;;10.30;99.90;;;;;;5011499;28;20042;-68
2024/02/19 08:40:10;;;;;;;4.68;0.35;;;10.30;99.90;;;;;;5012715;28;20525;-70
2024/02/19 08:42:36;;;;;;;0.77;0.30;;;10.20;99.90;;;;;;5026820;28;20030;-67
2024/02/19 08:45:05;;;;;;;1.27;0.22;;;10.20;99.90;;;;;;5011408;28;20083;-68
2024/02/19 08:47:31;;;;;;;0.30;0.20;;;10.30;99.90;;;;;;5010932;28;20848;-68
2024/02/19 08:49:57;;;;;;;0.15;0.08;;;10.30;99.90;;;;;;5013313;28;20072;-67
2024/02/19 08:52:23;;;;;;;0.30;0.10;;;10.30;99.90;;;;;;5011382;28;20030;-67
2024/02/19 08:54:49;;;;;;;0.63;0.28;;;10.40;99.90;;;;;;5012544;28;20030;-67
2024/02/19 08:57:16;;;;;;;2.03;0.45;;;10.40;99.90;;;;;;5010951;28;20422;-68
2024/02/19 08:59:45;;;;;;;0.30;0.30;;;10.40;99.90;;;;;;5016270;28;20052;-68
2024/02/19 09:02:15;;;;;;;6.15;1.67;;;10.50;99.90;;;;;;5004519;28;20029;-68
2024/02/19 09:04:45;;;;;;;0.65;0.40;;;10.50;99.90;;;;;;5017047;28;20029;-68
2024/02/19 09:07:15;;;;;;;6.05;0.60;;;10.50;99.90;;;;;;5015225;28;20026;-68
2024/02/19 09:09:44;;;;;;;2.85;0.45;;;10.70;99.90;;;;;;5012700;28;20530;-68
2024/02/19 09:12:11;;;;;;;1.13;0.35;;;10.60;99.90;;;;;;5012232;28;20021;-68
2024/02/19 09:14:37;;;;;;;0.43;0.22;;;10.60;99.90;;;;;;5011096;28;20053;-68
2024/02/19 09:17:05;;;;;;;2.30;0.35;;;10.70;99.90;;;;;;5021127;28;20026;-67
2024/02/19 09:19:33;;;;;;;1.75;0.47;;;10.70;99.90;;;;;;5011822;28;20517;-67
2024/02/19 09:21:59;;;;;;;1.05;0.50;;;10.70;99.90;;;;;;5010999;28;20034;-69
2024/02/19 09:24:25;;;;;;;0.60;0.32;;;10.70;99.90;;;;;;4978353;28;20164;-68
2024/02/19 09:26:52;;;;;;;0.43;0.40;;;10.70;99.90;;;;;;5012616;28;20028;-68
2024/02/19 09:29:18;;;;;;;1.08;0.30;;;10.70;99.90;;;;;;5011973;28;20038;-68
2024/02/19 09:31:43;;;;;;;1.95;0.45;;;10.70;99.90;;;;;;5012755;28;20525;-68
2024/02/19 09:34:09;;;;;;;5.60;0.28;;;10.70;99.90;;;;;;5012188;28;20037;-68
2024/02/19 09:36:35;;;;;;;1.00;0.40;;;10.70;99.90;;;;;;5018847;28;20105;-69
2024/02/19 09:39:02;;;;;;;1.05;0.52;;;10.80;99.90;;;;;;5011129;28;20736;-71
2024/02/19 09:41:29;;;;;;;0.55;0.38;;;10.80;99.90;;;;;;5012306;28;20069;-67
2024/02/19 09:43:55;;;;;;;3.38;0.93;;;10.80;99.90;;;;;;5013128;28;20026;-67
2024/02/19 09:46:22;;;;;;;0.35;0.20;;;10.80;99.90;;;;;;5015345;28;20033;-67
2024/02/19 09:48:54;;;;;;;3.25;0.57;;;10.70;99.90;;;;;;5011011;28;20036;-68
2024/02/19 09:51:24;;;;;;;1.45;0.52;;;10.80;99.90;;;;;;5012398;28;20112;-67
2024/02/19 09:53:51;;;;;;;1.17;0.25;;;10.80;99.90;;;;;;5004041;28;20065;-67
2024/02/19 09:56:26;;;;;;;3.63;0.52;;;10.80;99.90;;;;;;5009309;28;20042;-68
2024/02/19 09:58:52;;;;;;;4.20;0.57;;;10.90;99.90;;;;;;5009938;28;20022;-68
2024/02/19 10:01:18;;;;;;;0.55;0.30;;;10.80;99.90;;;;;;5010240;28;20564;-68
2024/02/19 10:03:44;;;;;;;5.82;0.30;;;10.80;99.90;;;;;;5009135;28;20030;-68
2024/02/19 10:06:10;;;;;;;1.23;0.22;;;11.00;99.90;;;;;;5009835;28;20029;-68
2024/02/19 10:08:36;;;;;;;5.40;0.95;;;11.00;99.90;;;;;;4992108;28;20096;-68
2024/02/19 10:11:10;;;;;;;0.57;0.30;;;11.10;99.90;;;;;;5026336;28;20453;-68
2024/02/19 10:13:41;;;;;;;1.40;0.25;;;11.20;99.90;;;;;;5010325;28;20037;-70
2024/02/19 10:16:09;;;;;;;1.10;0.30;;;11.10;99.90;;;;;;5011667;28;20087;-68
2024/02/19 10:18:35;;;;;;;4.13;0.45;;;11.10;99.90;;;;;;5011776;28;20034;-68
2024/02/19 10:21:01;;;;;;;0.20;0.10;;;11.10;99.90;;;;;;5026828;28;20057;-68
2024/02/19 10:23:27;;;;;;;0.70;0.28;;;11.10;99.90;;;;;;5011071;28;20109;-68
2024/02/19 10:25:55;;;;;;;1.20;0.20;;;11.10;99.90;;;;;;5009691;28;20113;-68
2024/02/19 10:28:22;;;;;;;0.00;0.00;;;11.20;99.90;;;;;;5009334;28;20466;-67
2024/02/19 10:30:48;;;;;;;2.53;0.77;;;11.40;99.90;;;;;;5008755;28;20680;-68
2024/02/19 10:33:15;;;;;;;0.88;0.30;;;11.30;99.90;;;;;;5010680;28;20030;-67
2024/02/19 10:35:41;;;;;;;2.35;0.50;;;11.30;99.90;;;;;;5013366;28;20084;-67
2024/02/19 10:38:10;;;;;;;1.85;0.65;;;11.30;99.90;;;;;;5014197;28;20034;-67
2024/02/19 10:40:36;;;;;;;1.10;0.32;;;11.50;99.90;;;;;;5012485;28;20034;-67
2024/02/19 10:43:03;;;;;;;2.13;0.43;;;11.40;99.90;;;;;;5014007;28;20029;-66
2024/02/19 10:45:30;;;;;;;0.57;0.28;;;11.50;99.90;;;;;;5012614;28;20124;-67
2024/02/19 10:47:57;;;;;;;0.80;0.38;;;11.60;99.90;;;;;;5013060;28;20030;-67
2024/02/19 10:50:23;;;;;;;0.30;0.20;;;11.70;99.90;;;;;;5011914;28;20382;-67
2024/02/19 10:52:51;;;;;;;0.73;0.10;;;11.70;99.90;;;;;;5002428;28;20030;-67
2024/02/19 10:55:22;;;;;;;0.80;0.30;;;11.50;99.90;;;;;;5011507;28;20481;-68
2024/02/19 10:57:53;;;;;;;0.35;0.28;;;11.50;99.90;;;;;;5011667;28;20187;-68
2024/02/19 11:00:28;;;;;;;0.95;0.20;;;11.60;99.90;;;;;;5012125;28;20038;-68
2024/02/19 11:03:08;;;;;;;0.22;0.22;;;11.80;99.90;;;;;;5011310;28;20033;-68
2024/02/19 11:05:45;;;;;;;1.05;0.47;;;11.80;99.90;;;;;;5013066;28;20662;-68
2024/02/19 11:08:22;;;;;;;1.45;0.40;;;11.80;99.90;;;;;;5009371;28;20376;-68
2024/02/19 11:10:50;;;;;;;1.27;0.40;;;11.80;99.90;;;;;;5011720;28;20033;-68
2024/02/19 11:13:26;;;;;;;2.40;0.65;;;12.00;99.90;;;;;;5011854;28;20041;-68
2024/02/19 11:15:53;;;;;;;0.10;0.10;;;11.70;99.90;;;;;;4997208;28;20033;-68
2024/02/19 11:18:20;;;;;;;0.28;0.20;;;11.90;99.90;;;;;;5014520;28;20037;-68
2024/02/19 11:20:48;;;;;;;1.23;0.40;;;12.00;99.90;;;;;;5001777;28;20037;-68
2024/02/19 11:23:15;;;;;;;1.65;0.40;;;12.00;99.90;;;;;;5012563;28;20038;-68
2024/02/19 11:25:43;;;;;;;1.30;0.93;;;12.10;99.90;;;;;;5013093;28;20029;-68
2024/02/19 11:28:11;;;;;;;0.60;0.45;;;12.00;99.90;;;;;;5013411;28;20030;-70
2024/02/19 11:30:37;;;;;;;0.88;0.60;;;12.10;99.90;;;;;;5012039;28;20033;-68
2024/02/19 11:33:05;;;;;;;0.82;0.73;;;12.10;99.90;;;;;;5010998;28;20026;-69
2024/02/19 11:35:34;;;;;;;1.77;0.50;;;12.10;99.90;;;;;;5019911;28;20041;-68
2024/02/19 11:37:59;;;;;;;7.75;0.50;;;12.10;99.90;;;;;;5008018;28;20034;-68
2024/02/19 11:40:31;;;;;;;0.28;0.22;;;12.10;99.90;;;;;;5011276;28;20041;-71
2024/02/19 11:43:02;;;;;;;1.00;0.22;;;12.00;99.90;;;;;;5011904;28;20522;-70
2024/02/19 11:45:30;;;;;;;;;;;11.90;99.90;;;;;;5010308;28;20073;-69
2024/02/19 11:47:57;;;;;;;0.68;0.22;;;12.00;99.90;;;;;;5011205;28;19914;-70
2024/02/19 11:50:29;;;;;;;1.45;0.43;;;12.20;99.90;;;;;;5010679;28;20033;-70
2024/02/19 11:52:58;;;;;;;2.97;0.88;;;12.40;99.90;;;;;;5012190;28;20108;-70
2024/02/19 11:55:25;;;;;;;0.68;0.47;;;12.60;99.90;;;;;;5013635;28;20470;-70
2024/02/19 11:57:52;;;;;;;1.23;0.43;;;12.50;99.90;;;;;;5012480;28;20032;-67
2024/02/19 12:00:19;;;;;;;1.25;0.88;;;12.20;99.90;;;;;;4995019;28;20038;-68
2024/02/19 12:02:51;;;;;;;5.03;0.60;;;12.10;99.90;;;;;;5026819;28;20100;-67
2024/02/19 12:05:18;;;;;;;2.38;0.57;;;12.10;99.90;;;;;;5010372;28;20171;-68
2024/02/19 12:07:45;;;;;;;1.33;0.77;;;12.00;99.90;;;;;;5010123;28;20137;-67
2024/02/19 12:10:11;;;;;;;2.97;0.65;;;11.90;99.90;;;;;;5010788;28;20124;-68
2024/02/19 12:12:38;;;;;;;0.90;0.52;;;12.00;99.90;;;;;;4997003;28;20060;-67
2024/02/19 12:15:15;;;;;;;6.45;0.45;;;11.90;99.90;;;;;;5012608;28;20029;-67
2024/02/19 12:17:43;;;;;;;3.53;0.63;;;11.90;99.90;;;;;;5009633;28;20026;-67
2024/02/19 12:20:10;;;;;;;2.42;0.25;;;11.90;99.90;;;;;;5012128;28;20050;-68
2024/02/19 12:22:37;;;;;;;3.20;0.68;;;11.80;99.90;;;;;;5008862;28;20064;-67
2024/02/19 12:25:05;;;;;;;0.25;0.20;;;11.60;99.90;;;;;;5012985;28;20034;-67
2024/02/19 12:27:31;;;;;;;4.70;0.40;;;11.50;99.90;;;;;;5010981;28;20022;-67
2024/02/19 12:29:57;;;;;;;0.65;0.30;;;11.60;99.90;;;;;;5010956;28;20056;-68
2024/02/19 12:32:23;;;;;;;5.05;1.75;;;11.40;99.90;;;;;;5009387;28;20517;-68
2024/02/19 12:34:49;;;;;;;0.90;0.85;;;11.50;99.90;;;;;;5009538;28;20049;-68
2024/02/19 12:37:18;;;;;;;24.35;1.10;;;11.40;99.90;;;;;;5011132;28;20029;-68
2024/02/19 12:39:44;;;;;;;2.67;0.52;;;11.50;99.90;;;;;;5010571;28;20037;-68
2024/02/19 12:42:10;;;;;;;5.15;0.73;;;11.50;99.90;;;;;;5011653;28;20509;-68
2024/02/19 12:44:38;;;;;;;0.32;0.10;;;11.50;99.90;;;;;;4993215;28;20394;-68